Time;durP1;ratioP1;P1;durP2;ratioP2;P2;SDS_P1;SDS_P2;PMS_P1;PMS_P2;Temp;Humidity;BMP_temperature;BMP_pressure;BME280_temperature;BME280_humidity;BME280_pressure;Samples;Min_cycle;Max_cycle;Signal;HPM_P1;HPM_P2
2022/01/29 00:00:17;;;;;;;13.75;6.22;;;;;;;3.31;58.36;100563.00;5087055;28;20038;-21
2022/01/29 00:02:43;;;;;;;10.98;5.57;;;;;;;3.41;58.08;100566.34;5088144;28;20537;-21
2022/01/29 00:05:09;;;;;;;8.55;4.45;;;;;;;3.26;58.24;100549.50;5087825;28;20036;-21
2022/01/29 00:07:35;;;;;;;9.93;5.28;;;;;;;3.21;58.32;100571.88;5086630;28;20039;-21
2022/01/29 00:10:03;;;;;;;10.55;5.82;;;;;;;3.11;57.72;100552.72;5087666;28;20028;-22
2022/01/29 00:12:29;;;;;;;10.95;5.55;;;;;;;3.16;57.93;100542.53;5088005;28;20103;-21
2022/01/29 00:14:55;;;;;;;10.43;4.78;;;;;;;3.32;57.34;100575.22;5087927;28;20024;-21
2022/01/29 00:17:20;;;;;;;10.70;4.85;;;;;;;3.07;57.54;100558.47;5086249;28;20028;-21
2022/01/29 00:19:45;;;;;;;7.85;4.13;;;;;;;3.14;57.31;100560.31;5085975;28;20035;-21
2022/01/29 00:22:11;;;;;;;9.32;5.20;;;;;;;3.19;57.29;100552.75;5069533;28;20032;-22
2022/01/29 00:24:36;;;;;;;8.75;4.30;;;;;;;3.08;56.80;100541.66;5087398;28;20412;-21
2022/01/29 00:27:08;;;;;;;8.82;3.67;;;;;;;3.00;57.43;100545.94;5087458;28;20488;-22
2022/01/29 00:29:34;;;;;;;7.40;4.45;;;;;;;3.17;56.78;100565.28;5086576;28;20036;-22
2022/01/29 00:32:00;;;;;;;10.55;5.35;;;;;;;3.07;57.27;100546.13;5087214;28;20407;-22
2022/01/29 00:34:25;;;;;;;9.30;4.72;;;;;;;3.10;57.64;100558.97;5087736;28;20037;-22
2022/01/29 00:36:51;;;;;;;11.60;5.50;;;;;;;2.98;58.14;100563.72;5088053;28;20027;-21
2022/01/29 00:39:16;;;;;;;17.70;4.13;;;;;;;3.01;58.29;100552.03;5087514;28;20032;-21
2022/01/29 00:41:42;;;;;;;9.13;4.38;;;;;;;2.97;58.16;100554.16;5087592;28;20031;-21
2022/01/29 00:44:07;;;;;;;7.68;4.60;;;;;;;2.96;57.79;100564.84;5087599;28;20036;-21
2022/01/29 00:46:33;;;;;;;11.00;5.53;;;;;;;2.93;57.97;100557.25;5086001;28;20073;-21
2022/01/29 00:48:58;;;;;;;6.95;4.00;;;;;;;2.95;57.62;100568.47;5086075;28;20746;-21
2022/01/29 00:51:24;;;;;;;11.23;4.43;;;;;;;2.80;57.48;100540.06;5087602;28;20078;-21
2022/01/29 00:53:49;;;;;;;9.20;4.15;;;;;;;2.83;58.13;100559.19;5087058;28;20035;-22
2022/01/29 00:56:15;;;;;;;10.32;4.85;;;;;;;2.88;57.69;100562.16;5086320;28;20035;-21
2022/01/29 00:58:40;;;;;;;8.02;5.10;;;;;;;3.01;57.33;100559.94;5087469;28;20416;-21
2022/01/29 01:01:06;;;;;;;10.18;5.38;;;;;;;2.94;57.37;100561.53;5087425;28;20032;-21
2022/01/29 01:03:31;;;;;;;9.50;4.70;;;;;;;2.79;57.80;100543.66;5087566;28;20031;-21
2022/01/29 01:05:57;;;;;;;9.68;4.57;;;;;;;2.90;57.64;100565.47;5087285;28;20032;-21
2022/01/29 01:08:22;;;;;;;9.82;5.00;;;;;;;2.91;57.83;100551.31;5069117;28;20101;-21
2022/01/29 01:10:48;;;;;;;7.68;3.78;;;;;;;2.87;57.52;100560.50;5087376;28;20035;-21
2022/01/29 01:13:13;;;;;;;8.57;5.00;;;;;;;2.90;57.65;100571.56;5087424;28;20464;-21
2022/01/29 01:15:38;;;;;;;11.48;5.50;;;;;;;2.96;57.89;100586.75;5087351;28;20415;-21
2022/01/29 01:18:04;;;;;;;11.75;5.22;;;;;;;2.78;58.17;100573.66;5085771;28;20036;-22
2022/01/29 01:20:29;;;;;;;11.10;5.47;;;;;;;2.83;57.92;100570.53;5087383;28;20028;-21
2022/01/29 01:22:55;;;;;;;11.32;5.60;;;;;;;2.97;57.25;100577.03;5087217;28;20495;-23
2022/01/29 01:25:20;;;;;;;12.05;6.20;;;;;;;2.76;58.53;100577.41;5085283;28;20064;-21
2022/01/29 01:27:46;;;;;;;9.93;5.32;;;;;;;2.64;58.80;100576.84;5086901;28;20081;-21
2022/01/29 01:30:12;;;;;;;12.73;6.47;;;;;;;2.61;59.03;100583.22;5088545;28;20032;-21
2022/01/29 01:32:37;;;;;;;12.95;6.05;;;;;;;2.63;59.07;100577.81;5091023;28;20024;-21
2022/01/29 01:35:28;;;;;;;10.82;5.35;;;;;;;2.55;59.22;100575.13;5089907;28;20048;-21
2022/01/29 01:38:01;;;;;;;11.50;5.88;;;;;;;2.49;59.27;100568.66;5090398;28;20129;-21
2022/01/29 01:40:28;;;;;;;10.18;5.30;;;;;;;2.34;59.76;100563.13;5091063;28;20028;-21
2022/01/29 01:42:59;;;;;;;11.32;5.80;;;;;;;2.52;59.69;100572.81;5090890;28;20555;-21
2022/01/29 01:45:25;;;;;;;11.40;5.45;;;;;;;2.33;60.02;100582.56;5091325;28;20032;-22
2022/01/29 01:47:51;;;;;;;11.80;5.72;;;;;;;2.29;60.39;100583.84;5089178;28;20527;-21
2022/01/29 01:50:16;;;;;;;10.55;5.72;;;;;;;2.24;60.52;100567.66;5090489;28;20020;-22
2022/01/29 01:52:42;;;;;;;11.15;5.38;;;;;;;2.04;60.84;100576.69;5090803;28;20028;-21
2022/01/29 01:55:07;;;;;;;11.27;5.80;;;;;;;2.05;60.92;100570.47;5090856;28;20576;-21
2022/01/29 01:57:32;;;;;;;12.30;5.50;;;;;;;1.92;60.95;100573.44;5089547;28;20404;-21
2022/01/29 01:59:58;;;;;;;13.77;5.80;;;;;;;1.85;61.62;100565.34;5088774;28;20605;-22
2022/01/29 02:02:23;;;;;;;11.15;5.63;;;;;;;2.00;61.15;100569.13;5089185;28;20407;-21
2022/01/29 02:04:49;;;;;;;10.55;6.10;;;;;;;2.11;60.47;100568.06;5090045;28;20028;-21
2022/01/29 02:07:15;;;;;;;11.05;4.97;;;;;;;1.94;60.77;100571.50;5090268;28;20404;-22
2022/01/29 02:09:40;;;;;;;9.20;4.38;;;;;;;1.92;60.83;100571.66;5071998;28;20040;-21
2022/01/29 02:12:08;;;;;;;6.40;3.30;;;;;;;1.85;60.80;100575.03;5090023;28;20031;-21
2022/01/29 02:14:35;;;;;;;12.45;5.70;;;;;;;1.88;61.42;100569.47;5090271;28;20909;-21
2022/01/29 02:17:01;;;;;;;11.40;5.65;;;;;;;1.79;61.37;100572.03;5090128;28;20036;-22
2022/01/29 02:19:26;;;;;;;11.93;5.65;;;;;;;1.91;61.23;100570.00;5071829;28;20125;-22
2022/01/29 02:21:53;;;;;;;12.27;5.70;;;;;;;1.75;61.04;100548.81;5088321;28;20020;-21
2022/01/29 02:24:19;;;;;;;11.80;5.03;;;;;;;1.82;60.72;100565.66;5088941;28;20032;-21
2022/01/29 02:26:44;;;;;;;10.45;5.25;;;;;;;1.78;61.01;100574.81;5089743;28;20075;-22
2022/01/29 02:29:10;;;;;;;10.52;5.32;;;;;;;1.86;60.69;100569.63;5089958;28;20028;-22
2022/01/29 02:31:37;;;;;;;11.23;5.22;;;;;;;1.88;60.95;100567.69;5089771;28;20028;-21
2022/01/29 02:34:04;;;;;;;11.25;5.07;;;;;;;1.87;61.46;100562.56;5088157;28;20110;-21
2022/01/29 02:36:30;;;;;;;11.40;5.88;;;;;;;1.94;60.56;100559.19;5088613;28;20046;-21
2022/01/29 02:38:55;;;;;;;10.80;5.13;;;;;;;1.88;60.67;100565.06;5089930;28;20024;-22
2022/01/29 02:41:24;;;;;;;12.65;6.28;;;;;;;1.79;60.31;100539.63;5089026;28;20081;-21
2022/01/29 02:43:51;;;;;;;10.60;5.65;;;;;;;2.16;59.97;100572.84;5089635;28;20027;-22
2022/01/29 02:48:44;;;;;;;12.48;5.22;;;;;;;2.40;59.15;100573.03;5089544;28;20043;-21
2022/01/29 02:51:09;;;;;;;11.38;5.97;;;;;;;2.48;58.58;100566.19;5088372;28;20059;-21
2022/01/29 02:53:35;;;;;;;11.95;5.85;;;;;;;2.54;59.00;100570.84;5089632;28;20484;-21
2022/01/29 02:56:00;;;;;;;19.70;8.80;;;;;;;2.59;58.77;100584.38;5087857;28;20038;-21
2022/01/29 02:58:26;;;;;;;61.58;22.08;;;;;;;2.32;60.12;100591.41;5087799;28;20047;-22
2022/01/29 03:00:51;;;;;;;22.30;8.95;;;;;;;2.30;59.96;100595.19;5089239;28;20028;-23
2022/01/29 03:03:17;;;;;;;13.65;7.10;;;;;;;2.58;59.54;100593.25;5089154;28;20419;-23
2022/01/29 03:05:42;;;;;;;12.75;6.30;;;;;;;2.45;59.73;100585.75;5089588;28;20085;-22
2022/01/29 03:08:08;;;;;;;13.13;7.20;;;;;;;2.30;60.47;100596.00;5087807;28;20032;-21
2022/01/29 03:10:33;;;;;;;11.00;6.25;;;;;;;2.22;60.42;100582.78;5089107;28;20180;-22
2022/01/29 03:12:59;;;;;;;12.68;6.10;;;;;;;1.57;62.16;100583.81;5089037;28;20081;-21
2022/01/29 03:15:24;;;;;;;13.98;6.75;;;;;;;1.50;62.64;100556.44;5089040;28;20035;-21
2022/01/29 03:17:50;;;;;;;12.02;6.60;;;;;;;1.63;62.40;100581.56;5088739;28;20040;-21
2022/01/29 03:20:15;;;;;;;11.98;6.43;;;;;;;1.73;62.36;100584.94;5088962;28;20024;-22
2022/01/29 03:22:41;;;;;;;12.73;6.10;;;;;;;2.04;61.46;100581.94;5089114;28;20042;-21
2022/01/29 03:25:06;;;;;;;14.80;6.70;;;;;;;2.37;60.62;100589.16;5088590;28;20048;-22
2022/01/29 03:27:32;;;;;;;15.45;7.72;;;;;;;2.11;60.40;100590.91;5088877;28;20024;-22
2022/01/29 03:29:57;;;;;;;13.48;7.18;;;;;;;1.74;61.24;100578.72;5070841;28;20040;-21
2022/01/29 03:32:23;;;;;;;13.90;6.95;;;;;;;1.96;61.28;100594.06;5087444;28;20028;-22
2022/01/29 03:34:48;;;;;;;11.18;6.13;;;;;;;1.72;62.09;100585.94;5088622;28;20036;-22
2022/01/29 03:37:14;;;;;;;327.73;125.25;;;;;;;1.67;62.12;100599.50;5088143;28;20035;-22
2022/01/29 03:39:42;;;;;;;416.85;165.20;;;;;;;1.37;62.86;100592.78;5088557;28;20648;-21
2022/01/29 03:42:09;;;;;;;111.07;51.97;;;;;;;1.20;63.08;100583.84;5088243;28;20024;-22
2022/01/29 03:44:35;;;;;;;111.65;69.97;;;;;;;1.37;63.15;100598.03;5088444;28;20034;-22
2022/01/29 03:47:00;;;;;;;92.75;63.72;;;;;;;1.25;63.50;100613.16;5088062;28;20032;-22
2022/01/29 03:49:25;;;;;;;43.90;29.45;;;;;;;1.27;62.77;100597.22;5088495;28;20077;-21
2022/01/29 03:51:51;;;;;;;70.25;52.10;;;;;;;1.42;63.02;100611.53;5087989;28;20024;-21
2022/01/29 03:54:16;;;;;;;44.08;27.42;;;;;;;1.55;62.76;100612.03;5087375;28;20036;-21
2022/01/29 03:56:42;;;;;;;42.90;28.15;;;;;;;1.62;62.60;100601.75;5086813;28;20105;-21
2022/01/29 03:59:07;;;;;;;220.07;107.88;;;;;;;1.82;61.87;100618.25;5087147;28;20051;-21
2022/01/29 04:01:33;;;;;;;43.47;31.90;;;;;;;1.80;60.90;100614.94;5087953;28;20028;-22
2022/01/29 04:03:59;;;;;;;49.67;42.83;;;;;;;1.45;62.17;100594.66;5086622;28;20036;-22
2022/01/29 04:06:25;;;;;;;32.72;28.75;;;;;;;1.55;62.01;100598.91;5088029;28;20119;-22
2022/01/29 04:08:50;;;;;;;31.08;27.77;;;;;;;1.56;61.63;100613.69;5086699;28;20032;-22
2022/01/29 04:11:16;;;;;;;19.58;17.15;;;;;;;1.45;62.53;100621.78;5087689;28;20119;-21
2022/01/29 04:13:45;;;;;;;19.60;14.50;;;;;;;1.22;63.95;100617.84;5087871;28;20406;-21
2022/01/29 04:16:11;;;;;;;22.20;17.10;;;;;;;1.37;62.88;100613.78;5086238;28;20024;-21
2022/01/29 04:18:36;;;;;;;53.00;39.67;;;;;;;1.51;62.23;100631.72;5087964;28;20097;-22
2022/01/29 04:21:03;;;;;;;14.60;8.30;;;;;;;1.72;62.01;100633.25;5087669;28;20024;-23
2022/01/29 04:23:28;;;;;;;10.43;5.85;;;;;;;1.48;62.49;100626.72;5087842;28;20166;-22
2022/01/29 04:25:54;;;;;;;10.35;5.60;;;;;;;1.50;62.02;100622.16;5069069;28;20170;-21
2022/01/29 04:28:22;;;;;;;11.93;6.32;;;;;;;1.52;62.02;100622.84;5086403;28;20032;-22
2022/01/29 04:30:54;;;;;;;13.20;6.78;;;;;;;1.44;62.26;100614.84;5087268;28;20028;-22
2022/01/29 04:35:48;;;;;;;11.50;5.80;;;;;;;1.36;62.67;100606.88;5087277;28;20036;-21
2022/01/29 04:38:14;;;;;;;11.93;5.90;;;;;;;1.17;62.57;100599.91;5086413;28;20051;-23
2022/01/29 04:40:39;;;;;;;17.50;10.05;;;;;;;1.59;62.07;100623.91;5087789;28;20510;-21
2022/01/29 04:43:05;;;;;;;13.63;7.28;;;;;;;1.68;61.21;100622.19;5086129;28;20050;-22
2022/01/29 04:45:30;;;;;;;14.93;7.78;;;;;;;1.73;61.39;100624.38;5086605;28;20032;-21
2022/01/29 04:47:56;;;;;;;12.02;6.95;;;;;;;1.78;60.90;100632.66;5086098;28;20032;-22
2022/01/29 04:50:21;;;;;;;18.33;9.32;;;;;;;1.75;61.37;100648.72;5086362;28;20028;-21
2022/01/29 04:52:47;;;;;;;11.82;6.20;;;;;;;1.65;61.48;100647.97;5087132;28;20081;-22
2022/01/29 04:55:12;;;;;;;13.85;6.55;;;;;;;1.63;61.51;100648.09;5087453;28;20056;-21
2022/01/29 04:57:40;;;;;;;13.82;6.80;;;;;;;1.67;62.06;100657.34;5087257;28;20416;-23
2022/01/29 05:00:08;;;;;;;10.57;6.22;;;;;;;1.62;61.70;100643.00;5085724;28;20170;-22
2022/01/29 05:02:34;;;;;;;10.70;6.20;;;;;;;1.39;62.47;100633.69;5086356;28;20020;-22
2022/01/29 05:05:00;;;;;;;11.75;6.25;;;;;;;1.32;62.44;100647.56;5088309;28;20122;-21
2022/01/29 05:07:25;;;;;;;11.23;6.15;;;;;;;1.07;63.38;100644.59;5091596;28;20054;-21
2022/01/29 05:09:51;;;;;;;13.45;6.90;;;;;;;1.15;63.71;100659.66;5089542;28;20043;-21
2022/01/29 05:12:23;;;;;;;12.48;6.40;;;;;;;1.19;63.41;100651.34;5091110;28;20016;-22
2022/01/29 05:28:03;;;;;;;13.75;7.82;;;;;;;1.45;62.74;100668.25;5091160;28;20043;-21
2022/01/29 05:30:29;;;;;;;26.85;15.45;;;;;;;1.69;61.95;100680.88;5091099;28;20020;-22
2022/01/29 05:32:54;;;;;;;38.30;22.25;;;;;;;1.38;62.71;100662.75;5091149;28;20024;-21
2022/01/29 05:35:20;;;;;;;36.58;23.38;;;;;;;1.47;62.63;100668.94;5090497;28;20036;-22
2022/01/29 05:37:49;;;;;;;15.52;8.38;;;;;;;1.54;62.78;100668.22;5091156;28;20032;-22
2022/01/29 05:40:14;;;;;;;17.13;7.95;;;;;;;1.59;61.98;100673.88;5090408;28;20039;-21
2022/01/29 05:42:40;;;;;;;14.75;8.48;;;;;;;1.57;62.81;100672.34;5090558;28;20028;-22
2022/01/29 05:45:06;;;;;;;14.30;8.02;;;;;;;1.57;62.29;100688.97;5090420;28;20063;-21
2022/01/29 05:47:32;;;;;;;14.80;7.93;;;;;;;1.46;62.99;100686.50;5088959;28;20479;-22
2022/01/29 05:49:57;;;;;;;13.85;7.32;;;;;;;1.55;63.43;100683.03;5090315;28;20035;-22
2022/01/29 05:52:23;;;;;;;13.88;7.70;;;;;;;1.63;62.59;100682.28;5090175;28;20024;-21
2022/01/29 05:54:51;;;;;;;46.00;26.42;;;;;;;1.77;62.56;100700.19;5090461;28;20020;-21
2022/01/29 05:57:16;;;;;;;20.52;11.75;;;;;;;1.57;62.15;100696.84;5090184;28;20143;-22
2022/01/29 05:59:42;;;;;;;20.55;10.68;;;;;;;1.76;62.89;100703.00;5090566;28;20039;-21
2022/01/29 06:02:07;;;;;;;18.58;9.68;;;;;;;1.92;62.41;100697.06;5089910;28;20031;-22
2022/01/29 06:04:33;;;;;;;25.25;11.02;;;;;;;2.11;62.74;100701.41;5089914;28;20032;-22
2022/01/29 06:06:58;;;;;;;16.38;8.82;;;;;;;2.09;62.28;100693.66;5090110;28;20031;-22
2022/01/29 06:09:23;;;;;;;15.55;8.00;;;;;;;1.88;62.89;100696.56;5089973;28;20039;-22
2022/01/29 06:11:49;;;;;;;12.43;8.10;;;;;;;1.95;63.26;100709.94;5089703;28;20025;-22
2022/01/29 06:14:14;;;;;;;15.02;8.20;;;;;;;2.08;63.28;100712.22;5088954;28;20081;-22
2022/01/29 06:16:40;;;;;;;15.73;9.05;;;;;;;1.88;62.93;100680.78;5088788;28;20039;-21
2022/01/29 06:19:05;;;;;;;29.33;17.63;;;;;;;2.10;62.66;100710.28;5089533;28;20419;-21
2022/01/29 06:21:31;;;;;;;391.52;187.88;;;;;;;2.18;62.92;100723.50;5089941;28;20042;-21
2022/01/29 06:23:58;;;;;;;124.32;72.35;;;;;;;2.16;63.51;100725.47;5089518;28;20024;-21
2022/01/29 06:26:23;;;;;;;29.08;17.73;;;;;;;2.49;62.94;100728.44;5089616;28;20084;-21
2022/01/29 06:28:49;;;;;;;16.20;9.68;;;;;;;2.18;63.24;100691.94;5089566;28;20505;-22
2022/01/29 06:31:14;;;;;;;15.05;8.55;;;;;;;2.38;62.94;100714.50;5089863;28;20036;-22
2022/01/29 06:33:40;;;;;;;18.25;9.82;;;;;;;2.38;62.80;100708.44;5087709;28;20033;-22
2022/01/29 06:36:06;;;;;;;18.55;9.40;;;;;;;2.67;61.81;100729.25;5089512;28;20483;-22
2022/01/29 06:38:31;;;;;;;13.88;7.95;;;;;;;2.55;62.35;100730.47;5089608;28;20134;-22
2022/01/29 06:40:56;;;;;;;14.20;8.63;;;;;;;2.78;61.84;100734.31;5089276;28;20089;-21
2022/01/29 06:43:22;;;;;;;15.27;8.13;;;;;;;2.80;61.10;100740.25;5088066;28;20105;-21
2022/01/29 06:45:48;;;;;;;12.68;8.00;;;;;;;2.64;60.39;100728.75;5088930;28;20040;-21
2022/01/29 06:48:14;;;;;;;14.70;8.10;;;;;;;3.14;59.78;100742.16;5088986;28;20035;-22
2022/01/29 06:50:40;;;;;;;15.35;7.95;;;;;;;3.20;58.75;100752.09;5089197;28;20484;-21
2022/01/29 06:53:06;;;;;;;13.95;7.72;;;;;;;3.22;58.00;100738.75;5087857;28;20046;-22
2022/01/29 06:55:31;;;;;;;12.77;7.40;;;;;;;3.43;58.10;100759.47;5070812;28;20055;-21
2022/01/29 06:57:57;;;;;;;17.40;8.73;;;;;;;3.44;58.54;100761.16;5088829;28;20055;-22
2022/01/29 07:00:22;;;;;;;13.68;7.78;;;;;;;3.49;59.13;100750.13;5089323;28;20036;-21
2022/01/29 07:02:47;;;;;;;13.93;7.45;;;;;;;3.64;58.23;100767.03;5088887;28;20404;-22
2022/01/29 07:05:13;;;;;;;14.88;8.20;;;;;;;3.88;57.87;100776.88;5087843;28;20040;-21
2022/01/29 07:07:39;;;;;;;17.88;9.15;;;;;;;3.91;58.81;100773.94;5088674;28;20109;-22
2022/01/29 07:10:05;;;;;;;45.45;30.27;;;;;;;3.56;59.33;100773.09;5088838;28;20043;-22
2022/01/29 07:12:30;;;;;;;31.63;20.42;;;;;;;3.86;59.58;100772.75;5088618;28;20028;-21
2022/01/29 07:14:56;;;;;;;27.33;17.58;;;;;;;3.68;58.71;100775.44;5087553;28;20043;-21
2022/01/29 07:17:24;;;;;;;22.30;14.70;;;;;;;3.66;59.69;100772.16;5087318;28;20491;-21
2022/01/29 07:19:50;;;;;;;17.58;10.55;;;;;;;3.72;59.82;100776.78;5087348;28;20115;-21
2022/01/29 07:22:16;;;;;;;19.98;10.70;;;;;;;3.62;59.47;100755.81;5088827;28;20039;-22
2022/01/29 07:24:41;;;;;;;19.17;12.32;;;;;;;3.36;60.28;100764.56;5088627;28;20040;-22
2022/01/29 07:27:07;;;;;;;39.50;19.42;;;;;;;3.41;60.32;100774.63;5088570;28;20103;-23
2022/01/29 07:29:32;;;;;;;35.20;18.33;;;;;;;3.56;60.46;100777.56;5088637;28;20039;-22
2022/01/29 07:31:58;;;;;;;33.28;17.67;;;;;;;3.66;60.72;100777.41;5088136;28;20487;-21
2022/01/29 07:34:24;;;;;;;41.78;19.60;;;;;;;3.45;60.79;100767.25;5088539;28;20036;-21
2022/01/29 07:36:52;;;;;;;33.95;17.58;;;;;;;3.52;60.38;100776.22;5086951;28;20059;-21
2022/01/29 07:39:18;;;;;;;58.38;25.48;;;;;;;3.65;60.26;100786.34;5069952;28;20032;-23
2022/01/29 07:41:43;;;;;;;57.67;23.88;;;;;;;3.42;61.21;100766.56;5088044;28;20043;-23
2022/01/29 07:44:09;;;;;;;36.17;19.58;;;;;;;3.77;60.07;100790.34;5088176;28;20031;-21
2022/01/29 07:46:34;;;;;;;43.25;23.42;;;;;;;3.63;59.38;100768.84;5086525;28;20036;-21
2022/01/29 07:49:00;;;;;;;40.70;24.20;;;;;;;3.96;59.22;100795.41;5088273;28;20403;-21
2022/01/29 07:51:25;;;;;;;28.67;20.13;;;;;;;4.00;58.80;100770.38;5088019;28;20036;-22
2022/01/29 07:53:51;;;;;;;21.73;14.27;;;;;;;7.88;59.70;100795.38;5087919;28;20117;-21
2022/01/29 07:56:16;;;;;;;18.73;11.88;;;;;;;10.17;55.53;100778.44;5086572;28;20059;-21
2022/01/29 07:58:42;;;;;;;33.25;22.08;;;;;;;11.46;48.02;100792.66;5088170;28;20024;-21
2022/01/29 08:01:07;;;;;;;38.83;22.90;;;;;;;9.29;44.46;100806.56;5088134;28;20415;-21
2022/01/29 08:03:33;;;;;;;44.05;23.02;;;;;;;7.59;47.70;100794.34;5088140;28;20031;-21
2022/01/29 08:05:58;;;;;;;50.05;28.63;;;;;;;6.94;50.38;100798.38;5087755;28;20484;-22
2022/01/29 08:08:23;;;;;;;39.47;25.48;;;;;;;6.71;50.66;100803.69;5087773;28;20085;-21
2022/01/29 08:10:49;;;;;;;20.48;14.07;;;;;;;6.41;51.30;100800.84;5088064;28;20028;-22
2022/01/29 08:13:15;;;;;;;19.13;12.10;;;;;;;6.32;52.40;100800.06;5087830;28;20036;-21
2022/01/29 08:15:40;;;;;;;15.55;9.57;;;;;;;6.11;51.49;100807.78;5088135;28;20427;-22
2022/01/29 08:18:06;;;;;;;17.08;10.65;;;;;;;5.46;52.07;100772.53;5087946;28;20553;-22
2022/01/29 08:20:32;;;;;;;17.65;9.48;;;;;;;5.19;53.71;100798.34;5087722;28;20043;-22
2022/01/29 08:22:57;;;;;;;15.50;10.30;;;;;;;5.21;54.18;100771.72;5086212;28;20059;-21
2022/01/29 08:25:23;;;;;;;24.50;13.95;;;;;;;4.76;55.73;100786.22;5085974;28;20476;-21
2022/01/29 08:27:49;;;;;;;16.83;10.80;;;;;;;4.70;56.09;100778.97;5087593;28;20071;-21
2022/01/29 08:30:14;;;;;;;18.58;12.18;;;;;;;4.94;56.11;100799.31;5087339;28;20530;-22
2022/01/29 08:32:42;;;;;;;15.65;9.00;;;;;;;5.12;54.51;100807.91;5086120;28;20039;-21
2022/01/29 08:35:13;;;;;;;16.77;10.18;;;;;;;5.49;55.24;100803.94;5087437;28;20035;-21
2022/01/29 08:37:38;;;;;;;18.05;11.32;;;;;;;5.74;54.10;100806.53;5087770;28;20040;-22
2022/01/29 08:40:04;;;;;;;17.45;10.77;;;;;;;5.75;53.13;100797.59;5086429;28;20052;-21
2022/01/29 08:42:30;;;;;;;16.88;8.95;;;;;;;5.68;53.64;100797.47;5087400;28;20111;-21
2022/01/29 08:44:56;;;;;;;16.80;10.13;;;;;;;5.56;54.07;100812.84;5087532;28;20043;-22
2022/01/29 08:47:21;;;;;;;16.60;9.93;;;;;;;5.70;55.12;100815.78;5087581;28;20028;-21
2022/01/29 08:49:47;;;;;;;31.58;18.00;;;;;;;5.90;54.83;100817.06;5087470;28;20034;-21
2022/01/29 08:52:13;;;;;;;39.15;21.13;;;;;;;5.92;54.02;100815.09;5087256;28;20051;-21
2022/01/29 08:54:38;;;;;;;18.23;9.85;;;;;;;5.70;53.78;100815.78;5087692;28;20032;-21
2022/01/29 08:57:04;;;;;;;17.58;8.63;;;;;;;5.54;53.26;100812.19;5087247;28;20477;-21
2022/01/29 08:59:29;;;;;;;26.65;10.98;;;;;;;5.60;53.58;100826.59;5087589;28;20065;-22
2022/01/29 09:01:54;;;;;;;75.00;22.48;;;;;;;5.47;53.53;100802.44;5085829;28;20032;-22
2022/01/29 09:04:20;;;;;;;22.52;12.40;;;;;;;5.77;53.49;100827.38;5087777;28;20035;-21
2022/01/29 09:06:45;;;;;;;13.75;8.63;;;;;;;5.77;51.97;100816.78;5087434;28;20040;-22
2022/01/29 09:09:11;;;;;;;12.98;7.50;;;;;;;5.70;52.04;100815.78;5087224;28;20036;-21
2022/01/29 09:11:36;;;;;;;13.77;7.65;;;;;;;5.96;52.14;100815.59;5086980;28;20067;-22
2022/01/29 09:14:02;;;;;;;13.85;9.05;;;;;;;6.29;51.54;100820.78;5086607;28;20024;-22
2022/01/29 09:16:27;;;;;;;12.95;7.70;;;;;;;6.15;51.68;100814.38;5086055;28;20407;-21
2022/01/29 09:18:53;;;;;;;13.95;8.55;;;;;;;6.40;51.42;100821.22;5087207;28;20028;-22
2022/01/29 09:21:18;;;;;;;16.70;10.18;;;;;;;6.31;50.78;100814.31;5087160;28;20032;-21
2022/01/29 09:23:44;;;;;;;17.27;11.68;;;;;;;6.56;50.48;100814.19;5086877;28;20036;-21
2022/01/29 09:26:09;;;;;;;12.95;6.75;;;;;;;6.04;50.31;100816.41;5086854;28;20060;-22
2022/01/29 09:28:35;;;;;;;14.45;8.38;;;;;;;5.95;51.63;100812.13;5087240;28;20036;-21
2022/01/29 09:31:00;;;;;;;14.90;7.80;;;;;;;6.15;51.79;100804.63;5086999;28;20032;-21
2022/01/29 09:33:26;;;;;;;14.45;8.93;;;;;;;6.48;50.32;100811.56;5087183;28;20097;-21
2022/01/29 09:35:51;;;;;;;16.13;10.57;;;;;;;6.73;50.43;100818.41;5085430;28;20036;-21
2022/01/29 09:38:16;;;;;;;15.45;8.80;;;;;;;6.80;49.30;100813.22;5087149;28;20028;-21
2022/01/29 09:40:42;;;;;;;11.73;7.25;;;;;;;6.53;48.90;100790.69;5086914;28;20032;-22
2022/01/29 09:43:09;;;;;;;12.98;8.93;;;;;;;6.80;49.16;100808.75;5086795;28;20027;-21
2022/01/29 09:45:35;;;;;;;16.27;12.32;;;;;;;7.21;49.64;100815.56;5087117;28;20115;-21
2022/01/29 09:48:04;;;;;;;13.98;8.23;;;;;;;6.82;48.85;100796.16;5086851;28;20622;-21
2022/01/29 09:50:31;;;;;;;16.55;8.75;;;;;;;6.71;49.42;100809.81;5087017;28;20097;-21
2022/01/29 09:52:57;;;;;;;27.40;15.23;;;;;;;6.91;49.52;100809.34;5090419;28;20021;-21
2022/01/29 09:55:23;;;;;;;15.20;8.73;;;;;;;7.14;49.48;100799.56;5090601;28;20086;-21
2022/01/29 09:57:48;;;;;;;13.40;7.45;;;;;;;7.26;48.84;100807.09;5089821;28;20043;-22
2022/01/29 10:00:14;;;;;;;12.45;8.38;;;;;;;7.18;48.93;100790.25;5090066;28;20035;-21
2022/01/29 10:02:40;;;;;;;16.30;10.35;;;;;;;7.26;48.75;100788.53;5088122;28;20234;-22
2022/01/29 10:05:06;;;;;;;12.00;8.02;;;;;;;7.24;48.54;100794.81;5090192;28;20053;-22
2022/01/29 10:07:31;;;;;;;20.65;8.27;;;;;;;7.38;47.89;100779.13;5090131;28;20448;-23
2022/01/29 10:09:57;;;;;;;13.77;8.85;;;;;;;7.68;47.83;100789.78;5089744;28;20032;-21
2022/01/29 10:12:27;;;;;;;13.07;9.02;;;;;;;7.93;48.59;100801.78;5088547;28;20091;-21
2022/01/29 10:14:59;;;;;;;16.85;9.00;;;;;;;7.85;47.46;100804.53;5090107;28;20992;-21
2022/01/29 10:17:44;;;;;;;14.93;8.45;;;;;;;8.00;48.44;100802.69;5090063;28;20055;-21
2022/01/29 10:20:19;;;;;;;12.93;8.07;;;;;;;8.02;47.37;100779.44;5089786;28;20024;-22
2022/01/29 10:22:46;;;;;;;21.00;13.30;;;;;;;8.59;46.37;100772.56;5088108;28;20035;-21
2022/01/29 10:25:14;;;;;;;10.20;7.28;;;;;;;9.02;46.07;100795.69;5088306;28;20063;-21
2022/01/29 10:27:41;;;;;;;16.45;10.18;;;;;;;8.90;45.50;100805.19;5089705;28;20154;-22
2022/01/29 10:30:09;;;;;;;386.30;315.70;;;;;;;9.16;45.15;100804.63;5071331;28;20036;-21
2022/01/29 10:32:35;;;;;;;78.80;63.97;;;;;;;9.24;44.94;100781.34;5089599;28;20028;-22
2022/01/29 10:35:01;;;;;;;123.75;101.03;;;;;;;9.48;45.31;100803.25;5087889;28;20266;-21
2022/01/29 10:37:27;;;;;;;52.10;34.20;;;;;;;9.11;44.95;100794.53;5089275;28;20047;-23
2022/01/29 10:39:56;;;;;;;41.50;32.72;;;;;;;8.90;46.15;100791.91;5089287;28;20031;-21
2022/01/29 10:42:26;;;;;;;47.03;37.97;;;;;;;8.90;46.44;100789.25;5087953;28;20449;-22
2022/01/29 10:44:54;;;;;;;45.65;27.17;;;;;;;8.73;46.90;100784.16;5089231;28;20031;-22
2022/01/29 10:47:20;;;;;;;31.40;18.10;;;;;;;9.37;45.94;100787.81;5089244;28;20463;-21
2022/01/29 10:49:57;;;;;;;35.08;18.17;;;;;;;9.23;45.45;100779.72;5088827;28;20020;-22
2022/01/29 10:52:35;;;;;;;28.17;19.63;;;;;;;9.24;45.56;100784.03;5089399;28;20067;-21
2022/01/29 10:55:02;;;;;;;32.60;21.77;;;;;;;8.99;45.92;100796.06;5089209;28;20093;-21
2022/01/29 10:57:46;;;;;;;21.35;14.60;;;;;;;8.79;45.85;100794.06;5089312;28;20028;-21
2022/01/29 11:00:26;;;;;;;59.70;28.48;;;;;;;9.38;44.74;100787.63;5070505;28;20044;-21
2022/01/29 11:02:53;;;;;;;19.42;12.48;;;;;;;9.50;44.79;100798.56;5088644;28;20551;-21
2022/01/29 11:05:19;;;;;;;28.30;16.40;;;;;;;9.90;44.46;100796.16;5088962;28;20020;-22
2022/01/29 11:07:47;;;;;;;30.58;18.05;;;;;;;9.84;43.91;100792.41;5088339;28;20039;-21
2022/01/29 11:10:12;;;;;;;90.07;42.22;;;;;;;10.27;42.82;100796.72;5088223;28;20035;-22
2022/01/29 11:12:42;;;;;;;59.97;35.25;;;;;;;10.39;41.22;100789.84;5088119;28;20032;-22
2022/01/29 11:15:07;;;;;;;35.67;25.30;;;;;;;10.18;42.21;100784.63;5088872;28;20105;-21
2022/01/29 11:17:33;;;;;;;52.13;30.27;;;;;;;10.25;42.21;100798.78;5087603;28;20492;-22
2022/01/29 11:20:00;;;;;;;24.00;19.58;;;;;;;10.35;41.44;100803.78;5088616;28;20032;-21
2022/01/29 11:22:30;;;;;;;16.00;9.73;;;;;;;10.55;40.90;100790.53;5087643;28;20047;-21
2022/01/29 11:25:06;;;;;;;13.02;8.57;;;;;;;10.18;41.24;100771.28;5086920;28;20479;-21
2022/01/29 11:27:37;;;;;;;59.88;40.70;;;;;;;10.17;42.90;100790.94;5087456;28;20066;-22
2022/01/29 11:30:09;;;;;;;26.88;20.38;;;;;;;10.41;42.03;100798.47;5087214;28;20036;-22
2022/01/29 11:32:40;;;;;;;13.68;9.77;;;;;;;10.50;39.80;100795.63;5088767;28;20058;-21
2022/01/29 11:35:11;;;;;;;43.83;28.33;;;;;;;10.94;39.55;100799.63;5088520;28;20064;-22